createdAt,value
2018-11-29T00:03:31.941Z,21.21
2018-11-29T00:08:35.684Z,21.21
2018-11-29T00:13:39.111Z,21.20
2018-11-29T00:18:42.642Z,21.21
2018-11-29T00:23:46.205Z,21.21
2018-11-29T00:28:49.701Z,21.18
2018-11-29T00:33:55.605Z,21.18
2018-11-29T00:38:59.023Z,21.14
2018-11-29T00:44:02.453Z,21.11
2018-11-29T00:49:05.867Z,21.06
2018-11-29T00:54:09.335Z,21.03
2018-11-29T00:59:12.803Z,21.00
2018-11-29T01:04:16.288Z,20.94
2018-11-29T01:09:19.671Z,20.89
2018-11-29T01:14:23.066Z,20.86
2018-11-29T01:19:26.515Z,20.83
2018-11-29T01:24:29.939Z,20.79
2018-11-29T01:29:33.310Z,20.76
2018-11-29T01:34:36.828Z,20.72
2018-11-29T01:39:40.271Z,20.70
2018-11-29T01:44:43.640Z,20.66
2018-11-29T01:49:47.037Z,20.64
2018-11-29T01:54:50.563Z,20.61
2018-11-29T01:59:54.028Z,20.58
2018-11-29T02:04:57.543Z,20.55
2018-11-29T02:10:06.231Z,20.53
2018-11-29T02:15:09.586Z,20.50
2018-11-29T02:20:17.816Z,20.46
2018-11-29T02:25:21.216Z,20.44
2018-11-29T02:30:24.657Z,20.42
2018-11-29T02:35:28.026Z,20.40
2018-11-29T02:40:31.476Z,20.37
2018-11-29T02:45:35.020Z,20.34
2018-11-29T02:50:38.451Z,20.35
2018-11-29T02:55:41.885Z,20.30
2018-11-29T03:00:45.275Z,20.28
2018-11-29T03:05:48.731Z,20.27
2018-11-29T03:10:52.087Z,20.26
2018-11-29T03:15:55.596Z,20.27
2018-11-29T03:20:59.101Z,20.26
2018-11-29T03:26:02.549Z,20.25
2018-11-29T03:31:06.028Z,20.22
2018-11-29T03:36:09.462Z,20.21
2018-11-29T03:41:12.869Z,20.18
2018-11-29T03:46:16.263Z,20.19
2018-11-29T03:51:19.708Z,20.17
2018-11-29T03:56:23.101Z,20.14
2018-11-29T04:01:26.525Z,20.13
2018-11-29T04:06:30.018Z,20.12
2018-11-29T04:11:33.424Z,20.09
2018-11-29T04:16:36.835Z,20.09
2018-11-29T04:21:40.183Z,20.08
2018-11-29T04:26:43.546Z,20.07
2018-11-29T04:31:46.959Z,20.03
2018-11-29T04:36:50.350Z,20.07
2018-11-29T04:41:53.844Z,20.03
2018-11-29T04:46:57.345Z,19.95
2018-11-29T04:52:00.963Z,19.96
2018-11-29T04:57:04.704Z,19.95
2018-11-29T05:02:08.311Z,19.89
2018-11-29T05:07:11.852Z,19.86
2018-11-29T05:12:15.497Z,19.85
2018-11-29T05:17:19.032Z,19.82
2018-11-29T05:22:22.643Z,19.80
2018-11-29T05:27:26.252Z,19.80
2018-11-29T05:32:29.780Z,19.77
2018-11-29T05:37:33.420Z,19.77
2018-11-29T05:42:37.034Z,19.76
2018-11-29T05:47:40.743Z,19.75
2018-11-29T05:52:44.099Z,19.74
2018-11-29T05:57:47.785Z,19.72
2018-11-29T06:02:54.155Z,19.71
2018-11-29T06:08:04.401Z,19.71
2018-11-29T06:13:07.953Z,19.70
2018-11-29T06:18:11.563Z,19.69
2018-11-29T06:23:15.150Z,19.69
2018-11-29T06:28:18.829Z,19.68
2018-11-29T06:33:22.480Z,19.66
2018-11-29T06:38:26.209Z,19.64
2018-11-29T06:43:29.982Z,19.64
2018-11-29T06:48:33.694Z,19.64
2018-11-29T06:53:42.690Z,19.62
2018-11-29T06:58:46.592Z,19.60
2018-11-29T07:03:50.390Z,19.60
2018-11-29T07:08:57.072Z,19.58
2018-11-29T07:14:01.002Z,19.56
2018-11-29T07:19:04.854Z,19.56
2018-11-29T07:24:08.286Z,19.52
2018-11-29T07:29:16.734Z,19.49
2018-11-29T07:34:15.145Z,19.48
2018-11-29T07:39:18.596Z,19.48
2018-11-29T07:44:21.947Z,19.49
2018-11-29T07:49:25.319Z,19.49
2018-11-29T07:54:28.667Z,13.97
2018-11-29T07:59:32.028Z,13.41
2018-11-29T08:04:35.394Z,13.89
2018-11-29T08:09:38.752Z,17.35
2018-11-29T08:14:42.126Z,18.98
2018-11-29T08:19:45.510Z,19.63
2018-11-29T08:24:48.863Z,19.79
2018-11-29T08:29:52.223Z,19.90
2018-11-29T08:34:55.596Z,20.05
2018-11-29T08:39:58.959Z,20.12
2018-11-29T08:45:02.338Z,20.14
2018-11-29T08:50:09.677Z,20.10
2018-11-29T08:55:16.396Z,20.03
2018-11-29T09:00:20.767Z,20.08
2018-11-29T09:05:24.212Z,20.23
2018-11-29T09:10:31.514Z,20.14
2018-11-29T09:15:32.099Z,20.68
2018-11-29T09:20:35.584Z,20.84
2018-11-29T09:25:38.898Z,20.97
2018-11-29T09:30:42.274Z,21.08
2018-11-29T09:35:45.719Z,21.02
2018-11-29T09:40:49.078Z,20.93
2018-11-29T09:45:52.501Z,21.26
2018-11-29T09:50:55.865Z,21.25
2018-11-29T09:55:59.326Z,21.14
2018-11-29T10:01:02.774Z,21.20
2018-11-29T10:06:06.533Z,21.33
2018-11-29T10:11:10.044Z,21.49
2018-11-29T10:16:13.423Z,21.49
2018-11-29T10:21:16.762Z,21.59
2018-11-29T10:26:20.138Z,21.64
2018-11-29T10:31:23.459Z,21.70
2018-11-29T10:36:26.795Z,21.76
2018-11-29T10:41:30.344Z,21.73
2018-11-29T10:46:40.246Z,21.79
2018-11-29T10:51:43.574Z,21.79
2018-11-29T10:56:46.921Z,21.87
2018-11-29T11:01:55.709Z,21.79
2018-11-29T11:06:59.099Z,21.75
2018-11-29T11:12:04.001Z,21.60
2018-11-29T11:17:07.797Z,21.65
2018-11-29T11:22:14.385Z,21.65
2018-11-29T11:27:19.675Z,21.69
2018-11-29T11:32:23.424Z,21.70
2018-11-29T11:37:27.233Z,21.80
2018-11-29T11:42:31.542Z,21.71
2018-11-29T11:47:35.248Z,21.77
2018-11-29T11:52:38.884Z,21.78
2018-11-29T11:57:43.766Z,21.76
2018-11-29T12:02:48.353Z,21.77
2018-11-29T12:07:52.119Z,21.82
2018-11-29T12:12:56.251Z,21.86
2018-11-29T12:17:59.704Z,21.78
2018-11-29T12:23:03.236Z,21.90
2018-11-29T12:28:06.873Z,21.87
2018-11-29T12:33:10.429Z,21.92
2018-11-29T12:38:13.825Z,21.97
2018-11-29T12:43:17.334Z,21.95
2018-11-29T12:48:20.780Z,21.99
2018-11-29T12:53:24.255Z,21.97
2018-11-29T12:58:27.706Z,21.98
2018-11-29T13:03:31.327Z,21.93
2018-11-29T13:08:34.740Z,21.89
2018-11-29T13:13:38.153Z,21.92
2018-11-29T13:18:41.578Z,22.01
2018-11-29T13:23:45.099Z,22.04
2018-11-29T13:28:48.612Z,21.85
2018-11-29T13:33:52.012Z,21.88
2018-11-29T13:38:55.669Z,21.99
2018-11-29T13:43:59.150Z,21.98
2018-11-29T13:49:02.675Z,21.99
2018-11-29T13:54:06.580Z,22.00
2018-11-29T13:59:10.157Z,21.95
2018-11-29T14:04:13.563Z,21.98
2018-11-29T14:09:17.020Z,21.99
2018-11-29T14:14:20.408Z,21.98
2018-11-29T14:19:23.887Z,22.14
2018-11-29T14:24:27.402Z,22.17
2018-11-29T14:29:30.784Z,22.13
2018-11-29T14:34:34.234Z,22.02
2018-11-29T14:39:37.685Z,21.96
2018-11-29T14:44:41.063Z,21.88
2018-11-29T14:49:44.408Z,21.77
2018-11-29T14:54:47.976Z,21.95
2018-11-29T14:59:51.557Z,21.89
2018-11-29T15:04:56.480Z,22.01
2018-11-29T15:10:06.361Z,21.99
2018-11-29T15:15:10.923Z,21.96
2018-11-29T15:20:31.480Z,21.89
2018-11-29T15:25:34.870Z,21.76
2018-11-29T15:30:38.332Z,21.67
2018-11-29T15:35:41.896Z,21.65
2018-11-29T15:40:45.263Z,21.78
2018-11-29T15:45:48.731Z,21.90
2018-11-29T15:50:52.210Z,21.99
2018-11-29T15:55:55.583Z,22.00
2018-11-29T16:00:58.899Z,21.77
2018-11-29T16:06:02.232Z,21.67
2018-11-29T16:11:06.084Z,21.63
2018-11-29T16:16:09.461Z,21.57
2018-11-29T16:21:12.856Z,21.60
2018-11-29T16:26:16.215Z,21.70
2018-11-29T16:31:19.538Z,21.87
2018-11-29T16:36:26.723Z,22.01
2018-11-29T16:41:30.518Z,22.01
2018-11-29T16:46:34.211Z,21.97
2018-11-29T16:51:37.819Z,22.07
2018-11-29T16:56:41.155Z,21.96
2018-11-29T17:01:44.468Z,21.91
2018-11-29T17:06:47.883Z,22.13
2018-11-29T17:11:51.448Z,21.83
2018-11-29T17:16:54.799Z,21.69
2018-11-29T17:21:58.224Z,21.80
2018-11-29T17:27:01.802Z,21.85
2018-11-29T17:32:05.720Z,22.09
2018-11-29T17:37:14.028Z,21.97
2018-11-29T17:47:27.589Z,21.92
2018-11-29T17:52:32.362Z,21.79
2018-11-29T17:57:38.215Z,21.89
2018-11-29T18:02:47.370Z,21.74
2018-11-29T18:07:54.068Z,21.60
2018-11-29T18:13:01.258Z,21.68
2018-11-29T18:18:04.635Z,21.65
2018-11-29T18:23:08.924Z,21.95
2018-11-29T18:28:12.934Z,22.11
2018-11-29T18:33:16.280Z,22.13
2018-11-29T18:38:19.678Z,21.96
2018-11-29T18:43:23.877Z,21.91
2018-11-29T18:48:27.210Z,21.89
2018-11-29T18:53:30.910Z,21.75
2018-11-29T18:58:34.326Z,21.67
2018-11-29T19:03:37.850Z,21.68
2018-11-29T19:08:41.219Z,21.63
2018-11-29T19:13:44.564Z,21.67
2018-11-29T19:18:47.990Z,21.79
2018-11-29T19:23:51.353Z,21.99
2018-11-29T19:28:54.695Z,22.12
2018-11-29T19:33:58.121Z,22.09
2018-11-29T19:39:01.515Z,22.09
2018-11-29T19:44:04.929Z,21.99
2018-11-29T19:49:08.383Z,21.93
2018-11-29T19:54:11.836Z,21.87
2018-11-29T19:59:15.127Z,21.87
2018-11-29T20:04:18.470Z,21.81
2018-11-29T20:09:21.786Z,21.78
2018-11-29T20:14:26.054Z,21.73
2018-11-29T20:25:16.178Z,21.64
2018-11-29T20:30:20.419Z,21.62
2018-11-29T20:35:23.810Z,21.61
2018-11-29T20:40:28.503Z,21.64
2018-11-29T20:45:45.931Z,21.64
2018-11-29T20:50:50.399Z,21.58
2018-11-29T20:55:54.021Z,21.55
2018-11-29T21:00:57.782Z,21.60
2018-11-29T21:06:01.402Z,21.47
2018-11-29T21:11:05.050Z,21.51
2018-11-29T21:16:08.713Z,21.52
2018-11-29T21:21:12.299Z,21.48
2018-11-29T21:26:15.916Z,21.57
2018-11-29T21:31:21.277Z,21.47
2018-11-29T21:36:25.195Z,21.50
2018-11-29T21:41:28.754Z,21.45
2018-11-29T21:46:32.269Z,21.50
2018-11-29T21:51:35.910Z,21.48
2018-11-29T21:56:40.765Z,21.48
2018-11-29T22:01:44.721Z,21.41
2018-11-29T22:06:48.319Z,21.39
2018-11-29T22:11:51.979Z,21.45
2018-11-29T22:16:55.625Z,21.45
2018-11-29T22:21:59.302Z,21.43
2018-11-29T22:27:02.899Z,21.43
2018-11-29T22:32:07.024Z,21.39
2018-11-29T22:37:10.587Z,21.41
2018-11-29T22:42:14.312Z,21.44
2018-11-29T22:47:17.807Z,21.42
2018-11-29T22:52:21.291Z,21.37
2018-11-29T22:57:27.639Z,21.40
2018-11-29T23:02:31.224Z,21.43
2018-11-29T23:07:34.609Z,21.40
2018-11-29T23:12:38.142Z,21.42
2018-11-29T23:17:41.657Z,21.39
2018-11-29T23:22:45.154Z,21.43
2018-11-29T23:27:48.713Z,21.37
2018-11-29T23:32:52.315Z,21.36
2018-11-29T23:37:55.935Z,21.38
2018-11-29T23:42:59.543Z,21.37
2018-11-29T23:48:03.127Z,21.41
2018-11-29T23:53:06.747Z,21.36
2018-11-29T23:58:16.572Z,21.37
